createdAt,value
2019-05-03T00:01:24.106Z,100817.50
2019-05-03T00:03:57.834Z,100822.20
2019-05-03T00:06:32.063Z,100760.21
2019-05-03T00:09:07.090Z,100815.96
2019-05-03T00:11:42.206Z,100818.94
2019-05-03T00:14:16.112Z,100817.84
2019-05-03T00:16:49.821Z,100799.50
2019-05-03T00:19:23.626Z,100824.32
2019-05-03T00:21:57.346Z,100816.47
2019-05-03T00:24:32.152Z,100820.77
2019-05-03T00:27:06.057Z,100820.77
2019-05-03T00:29:41.645Z,100820.47
2019-05-03T00:32:15.210Z,100824.83
2019-05-03T00:34:48.945Z,100826.66
2019-05-03T00:37:22.668Z,100821.88
2019-05-03T00:39:56.476Z,100830.00
2019-05-03T00:42:31.751Z,100830.00
2019-05-03T00:45:08.370Z,100824.48
2019-05-03T00:47:42.225Z,100834.88
2019-05-03T00:50:15.996Z,100833.83
2019-05-03T00:52:51.455Z,100836.64
2019-05-03T00:55:25.437Z,100836.64
2019-05-03T00:57:59.141Z,100821.97
2019-05-03T01:00:32.867Z,100821.97
2019-05-03T01:03:06.585Z,100829.15
2019-05-03T01:05:42.233Z,100830.31
2019-05-03T01:08:15.752Z,100831.74
2019-05-03T01:10:51.510Z,100831.74
2019-05-03T01:13:24.934Z,100828.30
2019-05-03T01:15:58.682Z,100823.60
2019-05-03T01:18:32.535Z,100823.60
2019-05-03T01:21:06.394Z,100839.85
2019-05-03T01:23:41.893Z,100839.85
2019-05-03T01:26:15.597Z,100832.09
2019-05-03T01:28:49.297Z,100832.09
2019-05-03T01:31:23.117Z,100840.77
2019-05-03T01:33:56.910Z,100840.77
2019-05-03T01:36:32.102Z,100849.14
2019-05-03T01:39:06.007Z,100849.14
2019-05-03T01:41:41.596Z,100851.12
2019-05-03T01:44:15.127Z,100851.12
2019-05-03T01:46:48.851Z,100854.65
2019-05-03T01:49:22.850Z,100849.77
2019-05-03T01:51:56.667Z,100851.77
2019-05-03T01:54:32.021Z,100851.77
2019-05-03T01:57:05.899Z,100855.06
2019-05-03T01:59:39.613Z,100846.45
2019-05-03T02:02:13.335Z,100830.20
2019-05-03T02:04:47.119Z,100847.69
2019-05-03T02:07:22.341Z,100853.81
2019-05-03T02:09:56.233Z,100858.92
2019-05-03T02:12:29.962Z,100858.92
2019-05-03T02:15:07.946Z,100863.06
2019-05-03T02:17:42.695Z,100866.47
2019-05-03T02:20:16.556Z,100866.47
2019-05-03T02:22:52.063Z,100876.47
2019-05-03T02:25:26.557Z,100876.47
2019-05-03T02:28:01.927Z,100887.41
2019-05-03T02:30:35.876Z,100899.31
2019-05-03T02:33:09.582Z,100899.31
2019-05-03T02:35:43.305Z,100894.55
2019-05-03T02:38:17.030Z,100894.55
2019-05-03T02:40:53.143Z,100890.91
2019-05-03T02:43:26.478Z,100890.91
2019-05-03T02:46:00.307Z,100888.27
2019-05-03T02:48:36.397Z,100888.27
2019-05-03T02:51:09.436Z,100880.15
2019-05-03T02:53:45.515Z,100880.84
2019-05-03T02:56:22.597Z,100880.84
2019-05-03T02:58:55.715Z,100892.00
2019-05-03T03:01:29.433Z,100889.53
2019-05-03T03:04:05.285Z,100889.53
2019-05-03T03:06:39.361Z,100887.65
2019-05-03T03:09:16.463Z,100887.65
2019-05-03T03:11:50.641Z,100886.28
2019-05-03T03:14:25.739Z,100889.47
2019-05-03T03:16:59.653Z,100893.11
2019-05-03T03:19:35.285Z,100893.11
2019-05-03T03:22:08.799Z,100893.30
2019-05-03T03:24:45.541Z,100893.30
2019-05-03T03:27:21.441Z,100900.48
2019-05-03T03:30:07.730Z,100900.48
2019-05-03T03:32:41.832Z,100898.91
2019-05-03T03:35:20.666Z,100898.91
2019-05-03T03:37:55.914Z,100908.36
2019-05-03T03:40:29.916Z,100907.66
2019-05-03T03:43:05.339Z,100917.48
2019-05-03T03:45:39.059Z,100923.53
2019-05-03T03:48:15.783Z,100923.53
2019-05-03T03:50:50.592Z,100929.14
2019-05-03T03:53:26.462Z,100920.77
2019-05-03T03:55:59.733Z,100920.77
2019-05-03T03:58:35.966Z,100926.22
2019-05-03T04:01:09.355Z,100935.50
2019-05-03T04:03:45.769Z,100940.05
2019-05-03T04:06:18.762Z,100940.05
2019-05-03T04:08:52.561Z,100953.50
2019-05-03T04:11:26.332Z,100951.38
2019-05-03T04:14:00.057Z,100951.38
2019-05-03T04:16:36.222Z,100956.61
2019-05-03T04:19:09.199Z,100931.62
2019-05-03T04:21:45.326Z,100931.62
2019-05-03T04:24:18.705Z,100953.98
2019-05-03T04:26:52.437Z,100953.05
2019-05-03T04:29:26.171Z,100964.39
2019-05-03T04:31:59.901Z,100964.81
2019-05-03T04:34:35.928Z,100964.81
2019-05-03T04:37:09.071Z,100960.99
2019-05-03T04:39:45.371Z,100955.80
2019-05-03T04:42:18.331Z,100955.80
2019-05-03T04:44:52.087Z,100977.62
2019-05-03T04:47:26.605Z,100988.89
2019-05-03T04:50:00.669Z,100987.60
2019-05-03T04:52:36.149Z,100987.60
2019-05-03T04:55:10.026Z,100972.17
2019-05-03T04:57:46.859Z,100988.22
2019-05-03T05:00:19.159Z,100990.64
2019-05-03T05:02:55.175Z,100990.64
2019-05-03T05:05:28.255Z,101002.20
2019-05-03T05:08:02.248Z,101003.13
2019-05-03T05:10:37.031Z,101006.79
2019-05-03T05:13:10.733Z,101006.79
2019-05-03T05:15:45.960Z,101019.99
2019-05-03T05:18:20.004Z,101014.16
2019-05-03T05:20:55.508Z,101011.83
2019-05-03T05:23:29.104Z,101021.84
2019-05-03T05:26:02.815Z,101020.52
2019-05-03T05:28:36.518Z,101027.38
2019-05-03T05:31:10.192Z,101029.42
2019-05-03T05:33:44.606Z,101030.13
2019-05-03T05:36:18.476Z,101032.31
2019-05-03T05:38:52.162Z,101025.73
2019-05-03T05:41:25.956Z,101025.73
2019-05-03T05:43:59.666Z,101032.03
2019-05-03T05:46:35.076Z,101036.56
2019-05-03T05:49:08.933Z,101041.33
2019-05-03T05:51:44.329Z,101040.91
2019-05-03T05:54:18.190Z,101040.91
2019-05-03T05:56:51.898Z,101036.05
2019-05-03T05:59:25.601Z,101036.05
2019-05-03T06:01:59.281Z,101043.40
2019-05-03T06:04:34.816Z,101048.81
2019-05-03T06:07:08.599Z,101037.44
2019-05-03T06:09:42.314Z,101046.81
2019-05-03T06:12:16.053Z,101044.91
2019-05-03T06:14:49.751Z,101047.34
2019-05-03T06:17:24.559Z,101047.34
2019-05-03T06:19:58.324Z,101055.63
2019-05-03T06:22:35.285Z,101055.63
2019-05-03T06:25:08.964Z,101052.25
2019-05-03T06:27:42.669Z,101052.25
2019-05-03T06:30:16.355Z,101052.41
2019-05-03T06:32:50.045Z,101055.02
2019-05-03T06:35:24.409Z,101055.02
2019-05-03T06:37:58.204Z,101060.48
2019-05-03T06:40:31.893Z,101054.99
2019-05-03T06:43:09.782Z,101052.62
2019-05-03T06:45:41.262Z,101052.62
2019-05-03T06:48:17.743Z,101057.63
2019-05-03T06:50:51.849Z,101062.62
2019-05-03T06:53:25.601Z,101062.62
2019-05-03T06:55:59.323Z,101061.70
2019-05-03T06:58:35.748Z,101061.70
2019-05-03T07:01:11.237Z,101064.51
2019-05-03T07:03:44.777Z,101057.14
2019-05-03T07:06:18.669Z,101057.14
2019-05-03T07:08:52.358Z,101059.28
2019-05-03T07:11:26.061Z,101058.91
2019-05-03T07:13:59.882Z,101058.91
2019-05-03T07:16:35.358Z,101053.92
2019-05-03T07:19:09.025Z,101053.92
2019-05-03T07:21:44.567Z,101065.97
2019-05-03T07:24:18.131Z,101056.30
2019-05-03T07:26:51.829Z,101056.55
2019-05-03T07:29:25.653Z,101056.55
2019-05-03T07:31:59.407Z,101063.31
2019-05-03T07:34:34.935Z,101057.80
2019-05-03T07:37:08.568Z,101064.08
2019-05-03T07:39:42.293Z,101064.08
2019-05-03T07:42:16.032Z,101057.51
2019-05-03T07:44:49.741Z,101058.55
2019-05-03T07:47:24.636Z,101058.55
2019-05-03T07:49:58.545Z,101056.79
2019-05-03T07:52:32.316Z,101061.21
2019-05-03T07:55:06.063Z,101060.84
2019-05-03T07:57:39.768Z,101061.94
2019-05-03T08:00:15.000Z,101061.94
2019-05-03T08:02:48.880Z,101069.36
2019-05-03T08:05:24.561Z,101069.36
2019-05-03T08:07:57.974Z,101064.27
2019-05-03T08:10:31.689Z,101051.63
2019-05-03T08:13:05.390Z,101051.63
2019-05-03T08:15:39.073Z,101052.37
2019-05-03T08:18:15.273Z,101052.37
2019-05-03T08:20:48.786Z,101051.66
2019-05-03T08:23:27.549Z,101050.80
2019-05-03T08:25:57.996Z,101050.80
2019-05-03T08:28:31.692Z,101059.21
2019-05-03T08:31:05.393Z,101059.21
2019-05-03T08:33:39.070Z,101053.58
2019-05-03T08:36:15.494Z,101055.13
2019-05-03T08:38:49.385Z,101053.60
2019-05-03T08:41:26.023Z,101054.11
2019-05-03T08:43:59.817Z,101054.11
2019-05-03T08:46:35.538Z,101037.77
2019-05-03T08:49:09.125Z,101028.34
2019-05-03T08:51:44.391Z,101027.70
2019-05-03T08:54:18.223Z,101018.39
2019-05-03T08:56:51.947Z,101022.75
2019-05-03T08:59:31.591Z,101022.75
2019-05-03T09:02:03.607Z,101014.59
2019-05-03T09:04:39.355Z,101035.41
2019-05-03T09:07:11.917Z,101033.52
2019-05-03T09:09:46.142Z,101035.45
2019-05-03T09:12:19.973Z,101035.45
2019-05-03T09:14:54.669Z,101023.21
2019-05-03T09:17:28.645Z,101023.21
2019-05-03T09:20:05.188Z,100999.48
2019-05-03T09:22:39.131Z,101009.44
2019-05-03T09:25:15.460Z,101009.44
2019-05-03T09:27:49.279Z,101008.31
2019-05-03T09:30:24.999Z,100999.63
2019-05-03T09:32:58.400Z,101009.73
2019-05-03T09:35:35.298Z,101009.73
2019-05-03T09:38:07.518Z,101016.04
2019-05-03T09:40:41.272Z,101003.73
2019-05-03T09:43:15.217Z,100994.45
2019-05-03T09:45:54.797Z,100993.15
2019-05-03T09:48:28.666Z,100993.15
2019-05-03T09:51:02.456Z,101008.12
2019-05-03T09:53:36.146Z,100997.77
2019-05-03T09:56:09.915Z,101004.93
2019-05-03T09:58:45.970Z,101003.88
2019-05-03T10:01:19.056Z,100999.77
2019-05-03T10:03:54.788Z,101001.22
2019-05-03T10:06:28.304Z,101008.22
2019-05-03T10:09:02.116Z,101008.68
2019-05-03T10:11:35.916Z,101017.00
2019-05-03T10:14:09.614Z,101010.59
2019-05-03T10:16:44.887Z,101010.59
2019-05-03T10:19:18.754Z,101012.81
2019-05-03T10:21:52.483Z,101016.56
2019-05-03T10:24:26.268Z,101014.92
2019-05-03T10:27:00.037Z,101015.72
2019-05-03T10:29:33.766Z,101014.69
2019-05-03T10:32:07.531Z,101019.40
2019-05-03T10:34:41.424Z,101023.87
2019-05-03T10:37:15.221Z,101028.77
2019-05-03T10:39:48.916Z,101026.05
2019-05-03T10:42:24.429Z,101022.65
2019-05-03T10:44:58.247Z,101021.81
2019-05-03T10:47:31.980Z,101021.81
2019-05-03T10:50:07.442Z,101020.81
2019-05-03T10:52:41.170Z,101024.34
2019-05-03T10:55:15.937Z,101024.34
2019-05-03T10:57:49.967Z,101014.69
2019-05-03T11:00:42.452Z,101012.48
2019-05-03T11:02:59.283Z,101012.48
2019-05-03T11:05:34.795Z,101000.46
2019-05-03T11:08:08.555Z,101006.83
2019-05-03T11:10:42.359Z,101006.83
2019-05-03T11:13:16.082Z,100998.49
2019-05-03T11:15:49.770Z,101002.91
2019-05-03T11:18:25.182Z,100997.62
2019-05-03T11:20:58.956Z,100981.57
2019-05-03T11:23:34.579Z,100983.89
2019-05-03T11:26:08.073Z,100990.57
2019-05-03T11:28:41.786Z,100988.34
2019-05-03T11:31:15.632Z,100980.95
2019-05-03T11:33:49.402Z,100973.84
2019-05-03T11:36:23.100Z,100975.50
2019-05-03T11:38:56.790Z,100968.95
2019-05-03T11:41:32.832Z,100968.95
2019-05-03T11:44:05.940Z,100972.47
2019-05-03T11:46:39.649Z,100972.47
2019-05-03T11:49:14.868Z,100976.30
2019-05-03T11:51:48.656Z,100968.92
2019-05-03T11:54:22.344Z,100963.97
2019-05-03T11:56:56.067Z,100961.02
2019-05-03T11:59:29.794Z,100957.90
2019-05-03T12:02:04.775Z,100945.66
2019-05-03T12:04:38.769Z,100945.66
2019-05-03T12:07:15.101Z,100948.25
2019-05-03T12:09:48.958Z,100937.81
2019-05-03T12:12:24.478Z,100944.52
2019-05-03T12:14:58.239Z,100949.07
2019-05-03T12:17:32.223Z,100957.20
2019-05-03T12:20:08.113Z,100952.25
2019-05-03T12:22:42.525Z,100958.68
2019-05-03T12:25:17.564Z,100955.27
2019-05-03T12:27:51.651Z,100950.50
2019-05-03T12:30:27.629Z,100950.50
2019-05-03T12:33:00.749Z,100951.20
2019-05-03T12:35:35.773Z,100949.86
2019-05-03T12:38:09.805Z,100949.86
2019-05-03T12:40:45.426Z,100953.16
2019-05-03T12:43:18.925Z,100954.52
2019-05-03T12:45:52.636Z,100941.41
2019-05-03T12:48:26.323Z,100941.41
2019-05-03T12:51:00.429Z,100942.86
2019-05-03T12:53:37.823Z,100942.42
2019-05-03T12:56:13.089Z,100941.14
2019-05-03T12:58:45.951Z,100950.28
2019-05-03T13:01:19.731Z,100950.28
2019-05-03T13:03:55.352Z,100943.98
2019-05-03T13:06:28.862Z,100937.12
2019-05-03T13:09:02.645Z,100934.55
2019-05-03T13:11:36.686Z,100921.45
2019-05-03T13:14:10.469Z,100921.53
2019-05-03T13:16:44.671Z,100911.92
2019-05-03T13:19:18.544Z,100911.92
2019-05-03T13:21:52.269Z,100911.55
2019-05-03T13:24:26.142Z,100904.75
2019-05-03T13:26:59.979Z,100895.83
2019-05-03T13:29:34.815Z,100895.83
2019-05-03T13:32:08.784Z,100889.95
2019-05-03T13:34:44.571Z,100893.85
2019-05-03T13:37:17.906Z,100893.85
2019-05-03T13:39:51.615Z,100893.31
2019-05-03T13:42:25.380Z,100897.04
2019-05-03T13:47:44.692Z,100895.21
2019-05-03T13:50:18.606Z,100894.45
2019-05-03T13:52:52.510Z,100882.02
2019-05-03T13:55:26.191Z,100884.97
2019-05-03T13:57:59.915Z,100884.14
2019-05-03T14:00:34.583Z,100875.80
2019-05-03T14:03:08.484Z,100869.13
2019-05-03T14:05:42.176Z,100869.13
2019-05-03T14:08:15.902Z,100860.06
2019-05-03T14:10:49.606Z,100855.08
2019-05-03T14:13:23.303Z,100856.86
2019-05-03T14:15:56.978Z,100856.86
2019-05-03T14:18:30.744Z,100851.79
2019-05-03T14:21:05.137Z,100849.09
2019-05-03T14:23:39.019Z,100849.09
2019-05-03T14:26:15.021Z,100855.98
2019-05-03T14:28:48.261Z,100848.14
2019-05-03T14:31:21.967Z,100848.14
2019-05-03T14:33:56.040Z,100849.58
2019-05-03T14:36:29.814Z,100851.19
2019-05-03T14:39:05.362Z,100851.19
2019-05-03T14:41:39.055Z,100849.16
2019-05-03T14:44:15.623Z,100861.67
2019-05-03T14:46:48.322Z,100858.46
2019-05-03T14:49:22.034Z,100856.89
2019-05-03T14:51:56.717Z,100849.30
2019-05-03T14:54:30.611Z,100853.76
2019-05-03T14:57:04.302Z,100853.76
2019-05-03T14:59:38.005Z,100848.95
2019-05-03T15:02:11.706Z,100843.52
2019-05-03T15:04:45.415Z,100836.11
2019-05-03T15:07:19.112Z,100839.42
2019-05-03T15:09:55.182Z,100839.42
2019-05-03T15:12:28.238Z,100837.48
2019-05-03T15:15:02.025Z,100843.13
2019-05-03T15:17:35.742Z,100843.13
2019-05-03T15:20:09.429Z,100822.27
2019-05-03T15:22:45.292Z,100822.27
2019-05-03T15:25:18.577Z,100828.70
2019-05-03T15:27:52.286Z,100822.00
2019-05-03T15:30:26.151Z,100822.00
2019-05-03T15:33:01.554Z,100831.88
2019-05-03T15:35:35.394Z,100830.79
2019-05-03T15:38:09.128Z,100830.79
2019-05-03T15:40:43.100Z,100834.70
2019-05-03T15:43:16.795Z,100834.70
2019-05-03T15:45:50.839Z,100836.19
2019-05-03T15:48:26.764Z,100836.19
2019-05-03T15:51:00.499Z,100840.33
2019-05-03T15:53:35.332Z,100840.02
2019-05-03T15:56:09.254Z,100840.02
2019-05-03T15:58:44.965Z,100841.89
2019-05-03T16:01:18.393Z,100838.94
2019-05-03T16:03:52.134Z,100837.41
2019-05-03T16:06:25.834Z,100837.41
2019-05-03T16:08:59.530Z,100834.59
2019-05-03T16:11:34.386Z,100825.78
2019-05-03T16:14:08.155Z,100846.61
2019-05-03T16:16:41.881Z,100846.61
2019-05-03T16:19:15.588Z,100848.02
2019-05-03T16:21:49.314Z,100841.01
2019-05-03T16:24:24.781Z,100829.63
2019-05-03T16:26:58.467Z,100830.59
2019-05-03T16:29:32.250Z,100830.59
2019-05-03T16:32:05.960Z,100831.41
2019-05-03T16:34:39.643Z,100835.77
2019-05-03T16:37:14.862Z,100835.77
2019-05-03T16:39:48.769Z,100829.66
2019-05-03T16:42:24.484Z,100824.59
2019-05-03T16:44:57.865Z,100824.95
2019-05-03T16:47:31.680Z,100838.45
2019-05-03T16:50:06.489Z,100839.89
2019-05-03T16:52:40.376Z,100839.89
2019-05-03T16:55:14.707Z,100828.99
2019-05-03T16:57:49.579Z,100827.59
2019-05-03T17:00:25.023Z,100827.59
2019-05-03T17:02:58.911Z,100828.09
2019-05-03T17:05:34.407Z,100828.09
2019-05-03T17:08:08.011Z,100827.05
2019-05-03T17:10:41.711Z,100829.64
2019-05-03T17:13:15.443Z,100827.17
2019-05-03T17:15:49.177Z,100819.53
2019-05-03T17:18:24.644Z,100819.53
2019-05-03T17:20:58.414Z,100827.14
2019-05-03T17:23:32.124Z,100827.14
2019-05-03T17:26:05.837Z,100836.52
2019-05-03T17:28:39.594Z,100829.60
2019-05-03T17:31:13.626Z,100829.60
2019-05-03T17:33:53.166Z,100837.48
2019-05-03T17:36:24.909Z,100834.44
2019-05-03T17:38:58.227Z,100833.91
2019-05-03T17:41:32.000Z,100837.92
2019-05-03T17:44:05.737Z,100836.67
2019-05-03T17:46:40.704Z,100836.67
2019-05-03T17:49:14.809Z,100829.98
2019-05-03T17:51:49.505Z,100835.82
2019-05-03T17:54:25.132Z,100835.82
2019-05-03T17:56:58.623Z,100840.71
2019-05-03T17:59:32.390Z,100837.09
2019-05-03T18:02:06.892Z,100834.27
2019-05-03T18:04:40.730Z,100834.27
2019-05-03T18:07:14.952Z,100839.84
2019-05-03T18:09:48.860Z,100838.83
2019-05-03T18:12:24.328Z,100840.50
2019-05-03T18:14:58.238Z,100841.98
2019-05-03T18:17:32.007Z,100842.75
2019-05-03T18:20:05.752Z,100842.75
2019-05-03T18:22:39.467Z,100836.33
2019-05-03T18:25:14.286Z,100832.75
2019-05-03T18:27:48.120Z,100834.92
2019-05-03T18:30:21.881Z,100834.92
2019-05-03T18:32:55.582Z,100819.14
2019-05-03T18:35:29.295Z,100827.59
2019-05-03T18:38:03.011Z,100827.59
2019-05-03T18:40:36.731Z,100824.02
2019-05-03T18:43:10.429Z,100826.05
2019-05-03T18:45:45.304Z,100818.80
2019-05-03T18:48:19.263Z,100818.80
2019-05-03T18:50:54.693Z,100827.45
2019-05-03T18:53:28.454Z,100820.99
2019-05-03T18:56:02.164Z,100820.99
2019-05-03T18:58:35.867Z,100820.75
2019-05-03T19:01:09.595Z,100826.34
2019-05-03T19:03:45.073Z,100818.33
2019-05-03T19:06:18.990Z,100810.08
2019-05-03T19:08:54.313Z,100808.23
2019-05-03T19:11:28.197Z,100814.30
2019-05-03T19:14:02.030Z,100814.30
2019-05-03T19:16:35.746Z,100820.20
2019-05-03T19:19:09.434Z,100820.20
2019-05-03T19:21:44.462Z,100820.94
2019-05-03T19:24:18.288Z,100822.67
2019-05-03T19:26:51.987Z,100822.67
2019-05-03T19:29:25.753Z,100820.14
2019-05-03T19:31:59.467Z,100820.12
2019-05-03T19:34:46.833Z,100820.12
2019-05-03T19:37:08.917Z,100824.53
2019-05-03T19:39:42.647Z,100809.56
2019-05-03T19:42:16.350Z,100812.12
2019-05-03T19:44:50.055Z,100812.12
2019-05-03T19:47:25.279Z,100819.20
2019-05-03T19:49:59.099Z,100819.20
2019-05-03T19:52:34.678Z,100809.16
2019-05-03T19:55:08.332Z,100807.75
2019-05-03T19:57:42.044Z,100809.58
2019-05-03T20:00:15.761Z,100809.58
2019-05-03T20:02:49.627Z,100808.09
2019-05-03T20:05:25.088Z,100806.64
2019-05-03T20:07:58.783Z,100815.09
2019-05-03T20:10:32.475Z,100815.41
2019-05-03T20:13:06.253Z,100812.34
2019-05-03T20:15:40.008Z,100812.34
2019-05-03T20:18:15.022Z,100810.17
2019-05-03T20:20:49.118Z,100810.17
2019-05-03T20:23:25.018Z,100819.99
2019-05-03T20:25:58.410Z,100813.66
2019-05-03T20:28:33.159Z,100810.96
2019-05-03T20:31:07.639Z,100801.64
2019-05-03T20:33:41.376Z,100801.64
2019-05-03T20:36:15.176Z,100811.00
2019-05-03T20:38:49.045Z,100813.43
2019-05-03T20:41:24.942Z,100813.89
2019-05-03T20:43:58.181Z,100813.89
2019-05-03T20:46:31.884Z,100806.14
2019-05-03T20:49:05.584Z,100810.89
2019-05-03T20:51:39.302Z,100817.00
2019-05-03T20:54:15.284Z,100824.09
2019-05-03T20:56:49.153Z,100826.16
2019-05-03T20:59:22.882Z,100835.56
2019-05-03T21:01:57.073Z,100834.94
2019-05-03T21:04:31.525Z,100832.54
2019-05-03T21:07:05.324Z,100832.54
2019-05-03T21:09:39.132Z,100824.42
2019-05-03T21:12:14.911Z,100824.42
2019-05-03T21:14:48.694Z,100815.20
2019-05-03T21:17:22.402Z,100815.20
2019-05-03T21:19:56.093Z,100811.37
2019-05-03T21:22:29.795Z,100809.80
2019-05-03T21:25:06.453Z,100809.80
2019-05-03T21:27:40.242Z,100808.09
2019-05-03T21:30:15.607Z,100803.95
2019-05-03T21:32:49.307Z,100803.95
2019-05-03T21:35:25.089Z,100806.48
2019-05-03T21:37:58.378Z,100806.25
2019-05-03T21:40:32.082Z,100809.78
2019-05-03T21:43:05.757Z,100812.67
2019-05-03T21:45:39.486Z,100802.95
2019-05-03T21:48:14.580Z,100802.95
2019-05-03T21:50:48.415Z,100805.69
2019-05-03T21:53:22.104Z,100804.24
2019-05-03T21:55:55.792Z,100798.37
2019-05-03T21:58:29.518Z,100822.12
2019-05-03T22:01:05.083Z,100816.17
2019-05-03T22:03:38.618Z,100814.58
2019-05-03T22:06:12.298Z,100814.58
2019-05-03T22:08:46.020Z,100809.31
2019-05-03T22:11:19.812Z,100801.00
2019-05-03T22:13:54.217Z,100805.27
2019-05-03T22:16:28.921Z,100817.02
2019-05-03T22:19:02.687Z,100818.94
2019-05-03T22:21:36.941Z,100814.20
2019-05-03T22:24:10.787Z,100809.63
2019-05-03T22:26:45.246Z,100820.47
2019-05-03T22:29:19.129Z,100805.88
2019-05-03T22:31:54.681Z,100799.13
2019-05-03T22:34:28.246Z,100799.13
2019-05-03T22:37:02.419Z,100799.27
2019-05-03T22:39:48.614Z,100790.21
2019-05-03T22:42:22.336Z,100790.05
2019-05-03T22:44:56.023Z,100776.97
2019-05-03T22:47:30.073Z,100781.69
2019-05-03T22:50:05.428Z,100781.69
2019-05-03T22:52:39.279Z,100782.86
2019-05-03T22:55:15.306Z,100776.74
2019-05-03T22:57:49.211Z,100769.88
2019-05-03T23:00:25.030Z,100765.36
2019-05-03T23:02:58.293Z,100746.91
2019-05-03T23:05:32.009Z,100765.45
2019-05-03T23:08:05.694Z,100757.65
2019-05-03T23:10:39.430Z,100751.11
2019-05-03T23:13:13.132Z,100756.95
2019-05-03T23:15:46.832Z,100756.95
2019-05-03T23:18:20.521Z,100744.41
2019-05-03T23:20:55.267Z,100746.72
2019-05-03T23:23:29.086Z,100742.34
2019-05-03T23:26:04.466Z,100746.41
2019-05-03T23:28:38.353Z,100746.41
2019-05-03T23:31:14.715Z,100736.66
2019-05-03T23:33:48.574Z,100728.94
2019-05-03T23:36:32.718Z,100741.84
2019-05-03T23:38:58.448Z,100736.08
2019-05-03T23:41:32.128Z,100728.41
2019-05-03T23:44:05.855Z,100704.80
2019-05-03T23:46:39.523Z,100726.91
2019-05-03T23:49:14.470Z,100723.97
2019-05-03T23:51:48.769Z,100722.38
2019-05-03T23:54:24.523Z,100722.38
2019-05-03T23:56:57.868Z,100717.97
2019-05-03T23:59:31.564Z,100722.10
